sensor_id;sensor_type;location;lat;lon;timestamp;P1;durP1;ratioP1;P2;durP2;ratioP2
69744;SDS011;57015;50.120;-5.168;2023-09-19T00:02:12;7.53;;;0.70;;
69744;SDS011;57015;50.120;-5.168;2023-09-19T00:04:37;4.70;;;0.47;;
69744;SDS011;57015;50.120;-5.168;2023-09-19T00:07:05;4.72;;;0.68;;
69744;SDS011;57015;50.120;-5.168;2023-09-19T00:09:30;8.05;;;0.70;;
69744;SDS011;57015;50.120;-5.168;2023-09-19T00:12:01;1.92;;;0.50;;
69744;SDS011;57015;50.120;-5.168;2023-09-19T00:14:28;5.63;;;0.40;;
69744;SDS011;57015;50.120;-5.168;2023-09-19T00:16:53;4.60;;;1.05;;
69744;SDS011;57015;50.120;-5.168;2023-09-19T00:19:19;1.80;;;0.20;;
69744;SDS011;57015;50.120;-5.168;2023-09-19T00:21:45;2.13;;;0.40;;
69744;SDS011;57015;50.120;-5.168;2023-09-19T00:24:12;3.40;;;0.60;;
69744;SDS011;57015;50.120;-5.168;2023-09-19T00:26:39;3.93;;;0.40;;
69744;SDS011;57015;50.120;-5.168;2023-09-19T00:29:04;4.05;;;0.55;;
69744;SDS011;57015;50.120;-5.168;2023-09-19T00:31:33;4.65;;;0.52;;
69744;SDS011;57015;50.120;-5.168;2023-09-19T00:33:59;3.70;;;1.00;;
69744;SDS011;57015;50.120;-5.168;2023-09-19T00:36:29;7.55;;;0.70;;
69744;SDS011;57015;50.120;-5.168;2023-09-19T00:38:54;6.37;;;0.60;;
69744;SDS011;57015;50.120;-5.168;2023-09-19T00:41:19;8.50;;;1.10;;
69744;SDS011;57015;50.120;-5.168;2023-09-19T00:43:46;6.50;;;0.60;;
69744;SDS011;57015;50.120;-5.168;2023-09-19T00:46:12;5.13;;;0.50;;
69744;SDS011;57015;50.120;-5.168;2023-09-19T00:48:42;7.45;;;0.80;;
69744;SDS011;57015;50.120;-5.168;2023-09-19T00:51:08;6.80;;;0.63;;
69744;SDS011;57015;50.120;-5.168;2023-09-19T00:53:33;6.22;;;0.70;;
69744;SDS011;57015;50.120;-5.168;2023-09-19T00:55:59;10.10;;;0.80;;
69744;SDS011;57015;50.120;-5.168;2023-09-19T00:58:25;10.43;;;1.00;;
69744;SDS011;57015;50.120;-5.168;2023-09-19T01:00:50;5.20;;;0.93;;
69744;SDS011;57015;50.120;-5.168;2023-09-19T01:03:16;10.00;;;1.17;;
69744;SDS011;57015;50.120;-5.168;2023-09-19T01:05:43;9.65;;;0.75;;
69744;SDS011;57015;50.120;-5.168;2023-09-19T01:08:09;11.47;;;1.00;;
69744;SDS011;57015;50.120;-5.168;2023-09-19T01:10:36;8.57;;;0.60;;
69744;SDS011;57015;50.120;-5.168;2023-09-19T01:13:22;5.03;;;0.60;;
69744;SDS011;57015;50.120;-5.168;2023-09-19T01:29:47;10.60;;;1.30;;
69744;SDS011;57015;50.120;-5.168;2023-09-19T01:32:16;7.03;;;1.00;;
69744;SDS011;57015;50.120;-5.168;2023-09-19T01:37:12;12.57;;;1.83;;
69744;SDS011;57015;50.120;-5.168;2023-09-19T01:39:39;9.93;;;1.20;;
69744;SDS011;57015;50.120;-5.168;2023-09-19T01:42:12;9.18;;;0.95;;
69744;SDS011;57015;50.120;-5.168;2023-09-19T01:47:17;6.72;;;1.15;;
69744;SDS011;57015;50.120;-5.168;2023-09-19T01:52:30;13.13;;;1.40;;
69744;SDS011;57015;50.120;-5.168;2023-09-19T01:55:02;12.65;;;1.38;;
69744;SDS011;57015;50.120;-5.168;2023-09-19T02:00:24;11.82;;;1.75;;
69744;SDS011;57015;50.120;-5.168;2023-09-19T02:02:51;13.85;;;1.77;;
69744;SDS011;57015;50.120;-5.168;2023-09-19T02:05:24;8.40;;;1.13;;
69744;SDS011;57015;50.120;-5.168;2023-09-19T02:07:50;9.30;;;2.10;;
69744;SDS011;57015;50.120;-5.168;2023-09-19T02:10:15;13.20;;;2.03;;
69744;SDS011;57015;50.120;-5.168;2023-09-19T02:12:42;12.63;;;1.65;;
69744;SDS011;57015;50.120;-5.168;2023-09-19T02:15:08;13.30;;;1.47;;
69744;SDS011;57015;50.120;-5.168;2023-09-19T02:17:34;10.15;;;1.75;;
69744;SDS011;57015;50.120;-5.168;2023-09-19T02:19:59;13.18;;;2.35;;
69744;SDS011;57015;50.120;-5.168;2023-09-19T02:22:26;13.00;;;1.93;;
69744;SDS011;57015;50.120;-5.168;2023-09-19T02:24:52;17.95;;;2.13;;
69744;SDS011;57015;50.120;-5.168;2023-09-19T02:27:18;16.25;;;2.40;;
69744;SDS011;57015;50.120;-5.168;2023-09-19T02:29:44;13.23;;;2.23;;
69744;SDS011;57015;50.120;-5.168;2023-09-19T02:32:09;12.70;;;3.00;;
69744;SDS011;57015;50.120;-5.168;2023-09-19T02:34:35;16.15;;;2.70;;
69744;SDS011;57015;50.120;-5.168;2023-09-19T02:37:10;14.45;;;2.28;;
69744;SDS011;57015;50.120;-5.168;2023-09-19T02:39:35;15.77;;;2.00;;
69744;SDS011;57015;50.120;-5.168;2023-09-19T02:42:01;13.18;;;2.65;;
69744;SDS011;57015;50.120;-5.168;2023-09-19T02:44:29;18.37;;;3.00;;
69744;SDS011;57015;50.120;-5.168;2023-09-19T02:46:55;20.63;;;3.42;;
69744;SDS011;57015;50.120;-5.168;2023-09-19T02:49:21;19.10;;;2.50;;
69744;SDS011;57015;50.120;-5.168;2023-09-19T02:51:47;16.60;;;2.03;;
69744;SDS011;57015;50.120;-5.168;2023-09-19T02:54:12;16.63;;;2.60;;
69744;SDS011;57015;50.120;-5.168;2023-09-19T02:56:38;18.58;;;2.97;;
69744;SDS011;57015;50.120;-5.168;2023-09-19T02:59:04;19.77;;;2.43;;
69744;SDS011;57015;50.120;-5.168;2023-09-19T03:01:30;22.05;;;2.85;;
69744;SDS011;57015;50.120;-5.168;2023-09-19T03:03:56;22.70;;;2.83;;
69744;SDS011;57015;50.120;-5.168;2023-09-19T03:06:21;20.17;;;3.30;;
69744;SDS011;57015;50.120;-5.168;2023-09-19T03:08:47;20.10;;;2.85;;
69744;SDS011;57015;50.120;-5.168;2023-09-19T03:11:14;14.85;;;2.28;;
69744;SDS011;57015;50.120;-5.168;2023-09-19T03:13:41;25.08;;;2.72;;
69744;SDS011;57015;50.120;-5.168;2023-09-19T03:16:07;14.10;;;2.40;;
69744;SDS011;57015;50.120;-5.168;2023-09-19T03:18:36;11.98;;;2.47;;
69744;SDS011;57015;50.120;-5.168;2023-09-19T03:21:02;18.80;;;3.28;;
69744;SDS011;57015;50.120;-5.168;2023-09-19T03:23:27;22.07;;;3.37;;
69744;SDS011;57015;50.120;-5.168;2023-09-19T03:25:54;16.70;;;3.03;;
69744;SDS011;57015;50.120;-5.168;2023-09-19T03:28:21;18.08;;;3.25;;
69744;SDS011;57015;50.120;-5.168;2023-09-19T03:30:57;20.00;;;3.10;;
69744;SDS011;57015;50.120;-5.168;2023-09-19T03:33:25;16.73;;;2.60;;
69744;SDS011;57015;50.120;-5.168;2023-09-19T03:35:54;19.10;;;2.75;;
69744;SDS011;57015;50.120;-5.168;2023-09-19T03:38:20;20.80;;;2.60;;
69744;SDS011;57015;50.120;-5.168;2023-09-19T03:40:46;22.92;;;3.22;;
69744;SDS011;57015;50.120;-5.168;2023-09-19T03:43:12;25.80;;;4.32;;
69744;SDS011;57015;50.120;-5.168;2023-09-19T03:45:38;14.87;;;2.87;;
69744;SDS011;57015;50.120;-5.168;2023-09-19T03:48:08;15.63;;;3.30;;
69744;SDS011;57015;50.120;-5.168;2023-09-19T03:50:34;19.25;;;2.85;;
69744;SDS011;57015;50.120;-5.168;2023-09-19T03:52:59;24.70;;;3.63;;
69744;SDS011;57015;50.120;-5.168;2023-09-19T03:55:24;15.80;;;2.83;;
69744;SDS011;57015;50.120;-5.168;2023-09-19T03:57:50;17.05;;;2.78;;
69744;SDS011;57015;50.120;-5.168;2023-09-19T04:00:15;15.80;;;3.00;;
69744;SDS011;57015;50.120;-5.168;2023-09-19T04:02:43;17.23;;;3.17;;
69744;SDS011;57015;50.120;-5.168;2023-09-19T04:05:11;16.67;;;2.60;;
69744;SDS011;57015;50.120;-5.168;2023-09-19T04:07:36;18.92;;;2.78;;
69744;SDS011;57015;50.120;-5.168;2023-09-19T04:10:02;19.37;;;3.30;;
69744;SDS011;57015;50.120;-5.168;2023-09-19T04:12:28;16.20;;;2.55;;
69744;SDS011;57015;50.120;-5.168;2023-09-19T04:14:53;17.17;;;2.83;;
69744;SDS011;57015;50.120;-5.168;2023-09-19T04:17:19;20.80;;;3.47;;
69744;SDS011;57015;50.120;-5.168;2023-09-19T04:19:44;16.98;;;3.10;;
69744;SDS011;57015;50.120;-5.168;2023-09-19T04:22:10;16.65;;;2.88;;
69744;SDS011;57015;50.120;-5.168;2023-09-19T04:24:37;19.40;;;3.03;;
69744;SDS011;57015;50.120;-5.168;2023-09-19T04:27:03;23.70;;;2.83;;
69744;SDS011;57015;50.120;-5.168;2023-09-19T04:29:29;20.15;;;3.45;;
69744;SDS011;57015;50.120;-5.168;2023-09-19T04:31:55;22.63;;;3.60;;
69744;SDS011;57015;50.120;-5.168;2023-09-19T04:34:22;16.20;;;3.20;;
69744;SDS011;57015;50.120;-5.168;2023-09-19T04:36:49;11.95;;;3.17;;
69744;SDS011;57015;50.120;-5.168;2023-09-19T04:39:14;19.20;;;3.43;;
69744;SDS011;57015;50.120;-5.168;2023-09-19T04:41:40;21.50;;;3.33;;
69744;SDS011;57015;50.120;-5.168;2023-09-19T04:44:06;15.38;;;3.35;;
69744;SDS011;57015;50.120;-5.168;2023-09-19T04:46:32;22.67;;;3.08;;
69744;SDS011;57015;50.120;-5.168;2023-09-19T04:48:57;19.57;;;3.43;;
69744;SDS011;57015;50.120;-5.168;2023-09-19T04:51:23;21.02;;;4.10;;
69744;SDS011;57015;50.120;-5.168;2023-09-19T04:53:49;18.47;;;3.93;;
69744;SDS011;57015;50.120;-5.168;2023-09-19T04:56:14;20.90;;;3.73;;
69744;SDS011;57015;50.120;-5.168;2023-09-19T04:58:40;20.98;;;3.67;;
69744;SDS011;57015;50.120;-5.168;2023-09-19T05:01:05;16.13;;;2.83;;
69744;SDS011;57015;50.120;-5.168;2023-09-19T05:03:32;19.70;;;3.78;;
69744;SDS011;57015;50.120;-5.168;2023-09-19T05:05:58;18.47;;;3.20;;
69744;SDS011;57015;50.120;-5.168;2023-09-19T05:08:23;18.30;;;3.00;;
69744;SDS011;57015;50.120;-5.168;2023-09-19T05:10:49;18.65;;;3.70;;
69744;SDS011;57015;50.120;-5.168;2023-09-19T05:13:14;19.77;;;4.00;;
69744;SDS011;57015;50.120;-5.168;2023-09-19T05:15:40;15.30;;;4.37;;
69744;SDS011;57015;50.120;-5.168;2023-09-19T05:18:05;25.45;;;4.45;;
69744;SDS011;57015;50.120;-5.168;2023-09-19T05:20:31;22.10;;;3.87;;
69744;SDS011;57015;50.120;-5.168;2023-09-19T05:23:01;17.80;;;3.88;;
69744;SDS011;57015;50.120;-5.168;2023-09-19T05:25:31;17.63;;;4.67;;
69744;SDS011;57015;50.120;-5.168;2023-09-19T05:27:57;23.25;;;4.03;;
69744;SDS011;57015;50.120;-5.168;2023-09-19T05:30:28;17.65;;;3.55;;
69744;SDS011;57015;50.120;-5.168;2023-09-19T05:32:54;18.97;;;4.00;;
69744;SDS011;57015;50.120;-5.168;2023-09-19T05:35:20;21.65;;;3.97;;
69744;SDS011;57015;50.120;-5.168;2023-09-19T05:37:47;22.95;;;3.45;;
69744;SDS011;57015;50.120;-5.168;2023-09-19T05:40:14;22.33;;;3.83;;
69744;SDS011;57015;50.120;-5.168;2023-09-19T05:42:39;26.33;;;4.03;;
69744;SDS011;57015;50.120;-5.168;2023-09-19T05:45:06;24.92;;;3.83;;
69744;SDS011;57015;50.120;-5.168;2023-09-19T05:47:32;24.30;;;4.17;;
69744;SDS011;57015;50.120;-5.168;2023-09-19T05:49:57;17.60;;;3.88;;
69744;SDS011;57015;50.120;-5.168;2023-09-19T05:52:24;29.55;;;5.25;;
69744;SDS011;57015;50.120;-5.168;2023-09-19T05:54:50;25.10;;;4.50;;
69744;SDS011;57015;50.120;-5.168;2023-09-19T05:57:15;25.00;;;5.43;;
69744;SDS011;57015;50.120;-5.168;2023-09-19T05:59:41;21.45;;;4.30;;
69744;SDS011;57015;50.120;-5.168;2023-09-19T06:02:08;28.63;;;4.93;;
69744;SDS011;57015;50.120;-5.168;2023-09-19T06:04:34;25.63;;;4.38;;
69744;SDS011;57015;50.120;-5.168;2023-09-19T06:07:00;26.40;;;3.90;;
69744;SDS011;57015;50.120;-5.168;2023-09-19T06:09:25;22.63;;;4.77;;
69744;SDS011;57015;50.120;-5.168;2023-09-19T06:11:53;24.98;;;4.35;;
69744;SDS011;57015;50.120;-5.168;2023-09-19T06:14:18;23.20;;;4.57;;
69744;SDS011;57015;50.120;-5.168;2023-09-19T06:16:44;19.53;;;4.60;;
69744;SDS011;57015;50.120;-5.168;2023-09-19T06:19:10;22.98;;;4.28;;
69744;SDS011;57015;50.120;-5.168;2023-09-19T06:21:36;23.17;;;4.80;;
69744;SDS011;57015;50.120;-5.168;2023-09-19T06:24:01;17.30;;;4.15;;
69744;SDS011;57015;50.120;-5.168;2023-09-19T06:26:27;22.95;;;4.80;;
69744;SDS011;57015;50.120;-5.168;2023-09-19T06:28:54;24.98;;;4.03;;
69744;SDS011;57015;50.120;-5.168;2023-09-19T06:31:20;27.45;;;4.97;;
69744;SDS011;57015;50.120;-5.168;2023-09-19T06:33:48;36.92;;;5.50;;
69744;SDS011;57015;50.120;-5.168;2023-09-19T06:36:13;32.93;;;5.30;;
69744;SDS011;57015;50.120;-5.168;2023-09-19T06:38:40;24.52;;;4.93;;
69744;SDS011;57015;50.120;-5.168;2023-09-19T06:41:06;20.13;;;4.53;;
69744;SDS011;57015;50.120;-5.168;2023-09-19T06:43:33;21.55;;;5.00;;
69744;SDS011;57015;50.120;-5.168;2023-09-19T06:45:59;19.93;;;4.20;;
69744;SDS011;57015;50.120;-5.168;2023-09-19T06:48:25;22.80;;;4.50;;
69744;SDS011;57015;50.120;-5.168;2023-09-19T06:50:55;19.70;;;4.90;;
69744;SDS011;57015;50.120;-5.168;2023-09-19T06:53:21;19.75;;;4.20;;
69744;SDS011;57015;50.120;-5.168;2023-09-19T06:55:48;22.88;;;4.20;;
69744;SDS011;57015;50.120;-5.168;2023-09-19T06:58:15;27.00;;;4.87;;
69744;SDS011;57015;50.120;-5.168;2023-09-19T07:00:41;19.17;;;4.80;;
69744;SDS011;57015;50.120;-5.168;2023-09-19T07:03:07;19.17;;;4.00;;
69744;SDS011;57015;50.120;-5.168;2023-09-19T07:05:33;17.23;;;3.53;;
69744;SDS011;57015;50.120;-5.168;2023-09-19T07:08:02;24.58;;;4.10;;
69744;SDS011;57015;50.120;-5.168;2023-09-19T07:10:28;16.98;;;3.83;;
69744;SDS011;57015;50.120;-5.168;2023-09-19T07:12:58;20.52;;;4.35;;
69744;SDS011;57015;50.120;-5.168;2023-09-19T07:15:25;22.10;;;3.97;;
69744;SDS011;57015;50.120;-5.168;2023-09-19T07:17:51;18.65;;;3.78;;
69744;SDS011;57015;50.120;-5.168;2023-09-19T07:20:18;20.02;;;4.43;;
69744;SDS011;57015;50.120;-5.168;2023-09-19T07:22:44;20.30;;;3.83;;
69744;SDS011;57015;50.120;-5.168;2023-09-19T07:25:09;21.95;;;4.20;;
69744;SDS011;57015;50.120;-5.168;2023-09-19T07:27:35;19.47;;;4.00;;
69744;SDS011;57015;50.120;-5.168;2023-09-19T07:30:00;14.67;;;2.97;;
69744;SDS011;57015;50.120;-5.168;2023-09-19T07:32:25;18.17;;;3.23;;
69744;SDS011;57015;50.120;-5.168;2023-09-19T07:34:51;14.50;;;3.40;;
69744;SDS011;57015;50.120;-5.168;2023-09-19T07:37:16;13.20;;;2.53;;
69744;SDS011;57015;50.120;-5.168;2023-09-19T07:39:42;13.70;;;2.53;;
69744;SDS011;57015;50.120;-5.168;2023-09-19T07:42:08;12.68;;;2.65;;
69744;SDS011;57015;50.120;-5.168;2023-09-19T07:44:35;12.07;;;2.60;;
69744;SDS011;57015;50.120;-5.168;2023-09-19T07:47:01;12.75;;;2.83;;
69744;SDS011;57015;50.120;-5.168;2023-09-19T07:49:28;19.90;;;2.90;;
69744;SDS011;57015;50.120;-5.168;2023-09-19T07:51:53;12.37;;;2.20;;
69744;SDS011;57015;50.120;-5.168;2023-09-19T07:54:19;15.13;;;3.85;;
69744;SDS011;57015;50.120;-5.168;2023-09-19T07:56:46;16.53;;;3.60;;
69744;SDS011;57015;50.120;-5.168;2023-09-19T07:59:11;16.98;;;2.78;;
69744;SDS011;57015;50.120;-5.168;2023-09-19T08:01:38;11.00;;;2.67;;
69744;SDS011;57015;50.120;-5.168;2023-09-19T08:04:05;15.07;;;3.35;;
69744;SDS011;57015;50.120;-5.168;2023-09-19T08:06:30;14.55;;;2.45;;
69744;SDS011;57015;50.120;-5.168;2023-09-19T08:08:56;17.65;;;3.55;;
69744;SDS011;57015;50.120;-5.168;2023-09-19T08:11:23;16.98;;;2.50;;
69744;SDS011;57015;50.120;-5.168;2023-09-19T08:13:49;17.98;;;3.10;;
69744;SDS011;57015;50.120;-5.168;2023-09-19T08:16:15;18.90;;;3.90;;
69744;SDS011;57015;50.120;-5.168;2023-09-19T08:18:42;12.75;;;2.63;;
69744;SDS011;57015;50.120;-5.168;2023-09-19T08:21:12;13.75;;;2.67;;
69744;SDS011;57015;50.120;-5.168;2023-09-19T08:23:40;15.77;;;2.67;;
69744;SDS011;57015;50.120;-5.168;2023-09-19T08:26:07;17.00;;;3.63;;
69744;SDS011;57015;50.120;-5.168;2023-09-19T08:28:33;15.68;;;2.80;;
69744;SDS011;57015;50.120;-5.168;2023-09-19T08:31:06;17.52;;;3.28;;
69744;SDS011;57015;50.120;-5.168;2023-09-19T08:33:32;19.30;;;2.83;;
69744;SDS011;57015;50.120;-5.168;2023-09-19T08:35:58;16.30;;;3.88;;
69744;SDS011;57015;50.120;-5.168;2023-09-19T08:38:24;15.33;;;2.70;;
69744;SDS011;57015;50.120;-5.168;2023-09-19T08:40:54;18.10;;;3.35;;
69744;SDS011;57015;50.120;-5.168;2023-09-19T08:43:21;15.80;;;3.30;;
69744;SDS011;57015;50.120;-5.168;2023-09-19T08:45:46;13.68;;;2.97;;
69744;SDS011;57015;50.120;-5.168;2023-09-19T08:48:27;14.30;;;3.47;;
69744;SDS011;57015;50.120;-5.168;2023-09-19T08:50:56;17.02;;;3.05;;
69744;SDS011;57015;50.120;-5.168;2023-09-19T08:53:29;19.42;;;3.13;;
69744;SDS011;57015;50.120;-5.168;2023-09-19T08:55:59;18.58;;;2.88;;
69744;SDS011;57015;50.120;-5.168;2023-09-19T08:58:27;16.00;;;2.70;;
69744;SDS011;57015;50.120;-5.168;2023-09-19T09:00:58;13.53;;;3.30;;
69744;SDS011;57015;50.120;-5.168;2023-09-19T09:03:26;19.77;;;3.67;;
69744;SDS011;57015;50.120;-5.168;2023-09-19T09:05:51;17.83;;;3.63;;
69744;SDS011;57015;50.120;-5.168;2023-09-19T09:08:18;13.83;;;2.77;;
69744;SDS011;57015;50.120;-5.168;2023-09-19T09:10:45;19.67;;;2.90;;
69744;SDS011;57015;50.120;-5.168;2023-09-19T09:13:10;17.30;;;2.97;;
69744;SDS011;57015;50.120;-5.168;2023-09-19T09:15:39;17.63;;;2.83;;
69744;SDS011;57015;50.120;-5.168;2023-09-19T09:18:06;22.63;;;2.97;;
69744;SDS011;57015;50.120;-5.168;2023-09-19T09:20:31;22.63;;;3.33;;
69744;SDS011;57015;50.120;-5.168;2023-09-19T09:22:57;16.30;;;3.70;;
69744;SDS011;57015;50.120;-5.168;2023-09-19T09:28:34;19.07;;;3.83;;
69744;SDS011;57015;50.120;-5.168;2023-09-19T09:31:01;20.73;;;3.35;;
69744;SDS011;57015;50.120;-5.168;2023-09-19T09:33:28;23.27;;;3.83;;
69744;SDS011;57015;50.120;-5.168;2023-09-19T09:35:54;27.67;;;4.05;;
69744;SDS011;57015;50.120;-5.168;2023-09-19T09:38:29;25.05;;;4.22;;
69744;SDS011;57015;50.120;-5.168;2023-09-19T09:41:08;18.70;;;3.57;;
69744;SDS011;57015;50.120;-5.168;2023-09-19T09:43:41;19.38;;;4.47;;
69744;SDS011;57015;50.120;-5.168;2023-09-19T09:46:14;22.83;;;3.75;;
69744;SDS011;57015;50.120;-5.168;2023-09-19T09:49:03;20.77;;;3.50;;
69744;SDS011;57015;50.120;-5.168;2023-09-19T09:51:44;20.35;;;4.25;;
69744;SDS011;57015;50.120;-5.168;2023-09-19T09:54:24;16.90;;;3.07;;
69744;SDS011;57015;50.120;-5.168;2023-09-19T09:57:01;17.73;;;4.10;;
69744;SDS011;57015;50.120;-5.168;2023-09-19T09:59:49;21.30;;;3.50;;
69744;SDS011;57015;50.120;-5.168;2023-09-19T10:02:16;25.73;;;3.70;;
69744;SDS011;57015;50.120;-5.168;2023-09-19T10:04:50;16.10;;;3.85;;
69744;SDS011;57015;50.120;-5.168;2023-09-19T10:07:33;27.40;;;4.17;;
69744;SDS011;57015;50.120;-5.168;2023-09-19T10:10:03;21.25;;;3.50;;
69744;SDS011;57015;50.120;-5.168;2023-09-19T10:12:41;19.50;;;3.83;;
69744;SDS011;57015;50.120;-5.168;2023-09-19T10:15:08;25.23;;;3.70;;
69744;SDS011;57015;50.120;-5.168;2023-09-19T10:17:36;23.55;;;3.63;;
69744;SDS011;57015;50.120;-5.168;2023-09-19T10:20:02;16.10;;;3.47;;
69744;SDS011;57015;50.120;-5.168;2023-09-19T10:22:47;25.73;;;4.75;;
69744;SDS011;57015;50.120;-5.168;2023-09-19T10:25:24;25.17;;;4.03;;
69744;SDS011;57015;50.120;-5.168;2023-09-19T10:27:50;22.10;;;4.73;;
69744;SDS011;57015;50.120;-5.168;2023-09-19T10:30:18;22.92;;;3.92;;
69744;SDS011;57015;50.120;-5.168;2023-09-19T10:32:45;21.23;;;4.05;;
69744;SDS011;57015;50.120;-5.168;2023-09-19T10:35:20;28.63;;;4.78;;
69744;SDS011;57015;50.120;-5.168;2023-09-19T10:37:46;26.90;;;4.50;;
69744;SDS011;57015;50.120;-5.168;2023-09-19T10:40:15;30.15;;;4.75;;
69744;SDS011;57015;50.120;-5.168;2023-09-19T10:42:42;24.65;;;4.50;;
69744;SDS011;57015;50.120;-5.168;2023-09-19T10:45:07;22.70;;;5.70;;
69744;SDS011;57015;50.120;-5.168;2023-09-19T10:47:38;23.90;;;3.72;;
69744;SDS011;57015;50.120;-5.168;2023-09-19T10:50:03;23.07;;;4.07;;
69744;SDS011;57015;50.120;-5.168;2023-09-19T10:52:31;22.27;;;4.25;;
69744;SDS011;57015;50.120;-5.168;2023-09-19T10:54:59;24.35;;;4.40;;
69744;SDS011;57015;50.120;-5.168;2023-09-19T10:57:27;29.77;;;3.97;;
69744;SDS011;57015;50.120;-5.168;2023-09-19T11:00:03;21.08;;;4.32;;
69744;SDS011;57015;50.120;-5.168;2023-09-19T11:05:36;21.48;;;3.60;;
69744;SDS011;57015;50.120;-5.168;2023-09-19T11:08:06;29.30;;;4.38;;
69744;SDS011;57015;50.120;-5.168;2023-09-19T11:10:45;25.93;;;3.83;;
69744;SDS011;57015;50.120;-5.168;2023-09-19T11:13:32;28.02;;;3.78;;
69744;SDS011;57015;50.120;-5.168;2023-09-19T11:26:50;25.63;;;4.10;;
69744;SDS011;57015;50.120;-5.168;2023-09-19T11:29:32;22.33;;;4.10;;
69744;SDS011;57015;50.120;-5.168;2023-09-19T11:31:58;25.98;;;4.18;;
69744;SDS011;57015;50.120;-5.168;2023-09-19T11:40:06;21.40;;;3.38;;
69744;SDS011;57015;50.120;-5.168;2023-09-19T11:42:41;20.10;;;4.10;;
69744;SDS011;57015;50.120;-5.168;2023-09-19T11:48:15;16.27;;;3.33;;
69744;SDS011;57015;50.120;-5.168;2023-09-19T11:50:44;19.80;;;3.53;;
69744;SDS011;57015;50.120;-5.168;2023-09-19T11:53:11;20.02;;;3.75;;
69744;SDS011;57015;50.120;-5.168;2023-09-19T11:55:37;19.23;;;3.28;;
69744;SDS011;57015;50.120;-5.168;2023-09-19T11:58:08;20.02;;;3.53;;
69744;SDS011;57015;50.120;-5.168;2023-09-19T12:00:34;22.90;;;4.13;;
69744;SDS011;57015;50.120;-5.168;2023-09-19T12:03:02;21.30;;;2.95;;
69744;SDS011;57015;50.120;-5.168;2023-09-19T12:05:34;18.27;;;3.33;;
69744;SDS011;57015;50.120;-5.168;2023-09-19T12:07:59;24.70;;;3.65;;
69744;SDS011;57015;50.120;-5.168;2023-09-19T12:10:25;19.27;;;3.93;;
69744;SDS011;57015;50.120;-5.168;2023-09-19T12:12:52;24.17;;;3.55;;
69744;SDS011;57015;50.120;-5.168;2023-09-19T12:15:24;21.05;;;3.53;;
69744;SDS011;57015;50.120;-5.168;2023-09-19T12:17:53;22.15;;;3.83;;
69744;SDS011;57015;50.120;-5.168;2023-09-19T12:20:19;24.17;;;3.43;;
69744;SDS011;57015;50.120;-5.168;2023-09-19T12:22:46;24.52;;;3.60;;
69744;SDS011;57015;50.120;-5.168;2023-09-19T12:25:12;18.65;;;3.95;;
69744;SDS011;57015;50.120;-5.168;2023-09-19T12:27:44;17.67;;;3.57;;
69744;SDS011;57015;50.120;-5.168;2023-09-19T12:30:21;20.08;;;2.95;;
69744;SDS011;57015;50.120;-5.168;2023-09-19T12:32:52;16.52;;;3.08;;
69744;SDS011;57015;50.120;-5.168;2023-09-19T12:35:30;19.53;;;3.30;;
69744;SDS011;57015;50.120;-5.168;2023-09-19T12:37:59;13.88;;;2.70;;
69744;SDS011;57015;50.120;-5.168;2023-09-19T12:40:26;15.55;;;3.05;;
69744;SDS011;57015;50.120;-5.168;2023-09-19T12:42:54;17.48;;;2.63;;
69744;SDS011;57015;50.120;-5.168;2023-09-19T12:45:32;18.57;;;3.30;;
69744;SDS011;57015;50.120;-5.168;2023-09-19T12:53:33;20.80;;;2.95;;
69744;SDS011;57015;50.120;-5.168;2023-09-19T12:56:01;19.23;;;3.30;;
69744;SDS011;57015;50.120;-5.168;2023-09-19T12:58:27;17.70;;;3.60;;
69744;SDS011;57015;50.120;-5.168;2023-09-19T13:00:55;20.58;;;3.05;;
69744;SDS011;57015;50.120;-5.168;2023-09-19T13:06:00;21.37;;;3.10;;
69744;SDS011;57015;50.120;-5.168;2023-09-19T13:08:31;22.45;;;3.22;;
69744;SDS011;57015;50.120;-5.168;2023-09-19T13:11:17;18.75;;;3.45;;
69744;SDS011;57015;50.120;-5.168;2023-09-19T13:14:13;16.25;;;2.85;;
69744;SDS011;57015;50.120;-5.168;2023-09-19T13:19:34;14.10;;;2.50;;
69744;SDS011;57015;50.120;-5.168;2023-09-19T13:22:05;19.48;;;3.08;;
69744;SDS011;57015;50.120;-5.168;2023-09-19T13:24:50;14.98;;;3.10;;
69744;SDS011;57015;50.120;-5.168;2023-09-19T13:27:16;15.88;;;2.92;;
69744;SDS011;57015;50.120;-5.168;2023-09-19T13:29:42;16.77;;;3.10;;
69744;SDS011;57015;50.120;-5.168;2023-09-19T13:32:07;16.13;;;3.27;;
69744;SDS011;57015;50.120;-5.168;2023-09-19T13:34:36;16.27;;;2.80;;
69744;SDS011;57015;50.120;-5.168;2023-09-19T13:37:02;20.10;;;3.33;;
69744;SDS011;57015;50.120;-5.168;2023-09-19T13:39:29;19.20;;;3.03;;
69744;SDS011;57015;50.120;-5.168;2023-09-19T13:41:55;18.83;;;3.27;;
69744;SDS011;57015;50.120;-5.168;2023-09-19T13:44:20;20.60;;;3.37;;
69744;SDS011;57015;50.120;-5.168;2023-09-19T13:46:45;19.10;;;3.00;;
69744;SDS011;57015;50.120;-5.168;2023-09-19T13:49:11;22.92;;;3.53;;
69744;SDS011;57015;50.120;-5.168;2023-09-19T13:51:37;13.73;;;2.60;;
69744;SDS011;57015;50.120;-5.168;2023-09-19T13:54:02;21.07;;;3.00;;
69744;SDS011;57015;50.120;-5.168;2023-09-19T13:56:27;14.37;;;2.60;;
69744;SDS011;57015;50.120;-5.168;2023-09-19T13:58:53;13.68;;;2.83;;
69744;SDS011;57015;50.120;-5.168;2023-09-19T14:01:19;11.33;;;2.13;;
69744;SDS011;57015;50.120;-5.168;2023-09-19T14:03:45;16.77;;;2.42;;
69744;SDS011;57015;50.120;-5.168;2023-09-19T14:06:14;16.63;;;3.00;;
69744;SDS011;57015;50.120;-5.168;2023-09-19T14:08:40;17.60;;;2.80;;
69744;SDS011;57015;50.120;-5.168;2023-09-19T14:11:08;15.60;;;3.13;;
69744;SDS011;57015;50.120;-5.168;2023-09-19T14:13:34;12.73;;;2.10;;
69744;SDS011;57015;50.120;-5.168;2023-09-19T14:16:03;16.40;;;3.17;;
69744;SDS011;57015;50.120;-5.168;2023-09-19T14:18:30;20.17;;;2.80;;
69744;SDS011;57015;50.120;-5.168;2023-09-19T14:20:56;14.70;;;2.67;;
69744;SDS011;57015;50.120;-5.168;2023-09-19T14:23:22;16.25;;;2.65;;
69744;SDS011;57015;50.120;-5.168;2023-09-19T14:25:48;15.52;;;2.40;;
69744;SDS011;57015;50.120;-5.168;2023-09-19T14:28:13;15.07;;;1.97;;
69744;SDS011;57015;50.120;-5.168;2023-09-19T14:30:39;10.90;;;2.10;;
69744;SDS011;57015;50.120;-5.168;2023-09-19T14:33:04;16.30;;;2.97;;
69744;SDS011;57015;50.120;-5.168;2023-09-19T14:35:30;18.17;;;2.30;;
69744;SDS011;57015;50.120;-5.168;2023-09-19T14:37:56;15.13;;;2.30;;
69744;SDS011;57015;50.120;-5.168;2023-09-19T14:40:21;10.83;;;1.90;;
69744;SDS011;57015;50.120;-5.168;2023-09-19T14:42:47;16.63;;;3.05;;
69744;SDS011;57015;50.120;-5.168;2023-09-19T14:45:13;17.80;;;2.67;;
69744;SDS011;57015;50.120;-5.168;2023-09-19T14:47:42;15.07;;;2.60;;
69744;SDS011;57015;50.120;-5.168;2023-09-19T14:50:08;13.40;;;2.28;;
69744;SDS011;57015;50.120;-5.168;2023-09-19T14:52:34;14.23;;;2.45;;
69744;SDS011;57015;50.120;-5.168;2023-09-19T14:55:01;18.27;;;2.83;;
69744;SDS011;57015;50.120;-5.168;2023-09-19T14:57:26;15.45;;;2.83;;
69744;SDS011;57015;50.120;-5.168;2023-09-19T14:59:52;18.97;;;3.07;;
69744;SDS011;57015;50.120;-5.168;2023-09-19T15:02:17;13.50;;;2.33;;
69744;SDS011;57015;50.120;-5.168;2023-09-19T15:04:43;14.35;;;2.35;;
69744;SDS011;57015;50.120;-5.168;2023-09-19T15:07:09;14.80;;;2.33;;
69744;SDS011;57015;50.120;-5.168;2023-09-19T15:09:35;15.03;;;2.50;;
69744;SDS011;57015;50.120;-5.168;2023-09-19T15:12:01;13.88;;;1.75;;
69744;SDS011;57015;50.120;-5.168;2023-09-19T15:14:26;11.18;;;2.20;;
69744;SDS011;57015;50.120;-5.168;2023-09-19T15:16:51;10.60;;;1.93;;
69744;SDS011;57015;50.120;-5.168;2023-09-19T15:19:17;17.73;;;2.07;;
69744;SDS011;57015;50.120;-5.168;2023-09-19T15:21:43;18.93;;;2.43;;
69744;SDS011;57015;50.120;-5.168;2023-09-19T15:24:09;12.23;;;2.22;;
69744;SDS011;57015;50.120;-5.168;2023-09-19T15:26:35;9.85;;;2.20;;
69744;SDS011;57015;50.120;-5.168;2023-09-19T15:29:04;11.25;;;1.70;;